Boo Sonier — WDG3281 — position and weather

sailwx.info

Track history (hours):
 
Tides and Currents Weather Stations Pressure Air Temp Water Temp Dewpoint Dewpoint Depression Visibility Wind Speed Wind Dir Waves Ship Positions

Boo Sonier

Owner: LeBeouf Bros. Towing, LLC, Houma, LA. More information available from US FCC via Universal Licensing System and Coast Guard Vessel Documentation Center.

Last reported at 2016-Jul-23 16:28 UTC. Time now 2016-Jul-23 23:13 UTC.
Position N 30°00' W 089°56'.

Length 21 m.

Type: Tug. MMSI: 367524420.

Date/timePositionNaut miles runAvg speedWind from/ knotsBaromVisibWave heightAir tempDewpointWater temp
2016-Jul-23 16:28N 30°00' W 089°56'4 4.2
2016-Jul-23 15:29N 29°60' W 090°00'2 2.4
2016-Jul-23 14:32N 29°58' W 090°02'1 0.7
2016-Jul-23 13:33N 29°57' W 090°01'2 1.8
2016-Jul-23 12:33N 29°56' W 089°60'0 0.0
2016-Jul-23 11:31N 29°56' W 089°60'0 0.0
2016-Jul-23 10:33N 29°56' W 089°60'0 0.0
2016-Jul-23 09:30N 29°56' W 089°60'0 0.0
2016-Jul-23 08:34N 29°56' W 089°60'0 0.0
2016-Jul-23 07:34N 29°56' W 089°60'0 0.0
2016-Jul-23 06:33N 29°56' W 089°60'0 0.0
2016-Jul-23 04:34N 29°56' W 089°60'1 0.5
2016-Jul-23 03:31N 29°56' W 090°00'0 0.0
2016-Jul-23 02:31N 29°56' W 090°00'0 0.0
2016-Jul-23 01:31N 29°56' W 090°00'1 0.6
2016-Jul-23 00:31N 29°56' W 089°60'0 0.1
2016-Jul-22 23:31N 29°56' W 089°60'0 0.1
2016-Jul-22 22:31N 29°56' W 089°60'0 0.0
2016-Jul-22 21:28N 29°56' W 089°60'0 0.0
2016-Jul-22 20:31N 29°56' W 089°60'0 0.0
2016-Jul-22 19:28N 29°56' W 089°60'0 0.0
2016-Jul-22 18:28N 29°56' W 089°60'0 0.0
2016-Jul-22 17:31N 29°56' W 089°60'0 0.0
2016-Jul-22 16:31N 29°56' W 089°60'0 0.0
2016-Jul-22 15:31N 29°56' W 089°60'0 0.0
2016-Jul-22 14:31N 29°56' W 089°60'0 0.0
2016-Jul-22 13:31N 29°56' W 089°60'0 0.0
2016-Jul-22 12:31N 29°56' W 089°60'0 0.0
2016-Jul-22 11:31N 29°56' W 089°60'0 0.0
2016-Jul-22 10:31N 29°56' W 089°60'0 0.0
2016-Jul-22 09:31N 29°56' W 089°60'0 0.0
2016-Jul-22 08:31N 29°56' W 089°60'0 0.0
2016-Jul-22 07:31N 29°56' W 089°60'0 0.0
2016-Jul-22 04:31N 29°56' W 089°60'0 0.0
2016-Jul-22 03:31N 29°56' W 089°60'0 0.0
2016-Jul-22 02:31N 29°56' W 089°60'2 1.7
2016-Jul-22 01:31N 29°55' W 089°58'1 0.7
2016-Jul-22 00:31N 29°54' W 089°59'0 0.0
2016-Jul-21 23:31N 29°54' W 089°59'3 3.6
2016-Jul-21 22:33N 29°51' W 090°01'4 3.9
2016-Jul-21 21:33N 29°49' W 090°04'26 4.2
2016-Jul-21 15:19N 29°34' W 090°28'4 5.5
2016-Jul-21 14:33N 29°34' W 090°33'3 2.5
2016-Jul-21 13:33N 29°35' W 090°36'0 0.1
2016-Jul-21 12:33N 29°35' W 090°36'2 1.5
2016-Jul-21 11:33N 29°35' W 090°37'5 4.7
2016-Jul-21 10:33N 29°36' W 090°43'3 3.2
2016-Jul-21 09:31N 29°34' W 090°45'5 5.1
2016-Jul-21 08:33N 29°32' W 090°50'1 0.0
2016-Jul-20 02:33N 29°32' W 090°49'6 5.8
2016-Jul-20 01:33N 29°35' W 090°43'4 3.7
2016-Jul-20 00:33N 29°36' W 090°39'3 2.8
2016-Jul-19 23:33N 29°35' W 090°36'0 0.3
2016-Jul-19 22:31N 29°34' W 090°36'0 0.0
2016-Jul-19 21:25N 29°34' W 090°36'0 0.0
2016-Jul-19 20:31N 29°34' W 090°36'0 0.0
2016-Jul-19 19:31N 29°34' W 090°36'0 0.0
2016-Jul-19 18:31N 29°34' W 090°36'0 0.0
2016-Jul-19 17:31N 29°34' W 090°36'0 0.0
2016-Jul-19 16:31N 29°34' W 090°36'0 0.3
2016-Jul-19 15:33N 29°35' W 090°35'0 0.3
2016-Jul-19 14:28N 29°35' W 090°36'0 0.0
2016-Jul-19 13:28N 29°35' W 090°36'4 4.0
2016-Jul-19 12:33N 29°36' W 090°40'2 1.9
2016-Jul-19 11:31N 29°37' W 090°42'0 0.0
2016-Jul-19 10:31N 29°37' W 090°42'0 0.0
2016-Jul-19 09:31N 29°37' W 090°42'0 0.0
2016-Jul-19 08:31N 29°37' W 090°42'0 0.0
2016-Jul-19 07:31N 29°37' W 090°42'0 0.0
2016-Jul-19 04:31N 29°37' W 090°42'0 0.0
2016-Jul-19 03:31N 29°37' W 090°42'0 0.0
2016-Jul-19 02:31N 29°37' W 090°42'0 0.0
2016-Jul-19 01:31N 29°37' W 090°42'0 0.0
2016-Jul-19 00:31N 29°37' W 090°42'1 1.3
2016-Jul-18 23:33N 29°36' W 090°40'5 4.7
2016-Jul-18 22:33N 29°35' W 090°35'0 0.3
2016-Jul-18 21:12N 29°34' W 090°36'0 0.0
2016-Jul-18 20:24N 29°34' W 090°36'0 0.0
2016-Jul-18 19:30N 29°34' W 090°36'0 0.0
2016-Jul-18 18:30N 29°34' W 090°36'0 0.0
2016-Jul-18 17:30N 29°34' W 090°36'0 0.0
2016-Jul-18 16:30N 29°34' W 090°36'0 0.0
2016-Jul-18 15:30N 29°34' W 090°36'0 0.0
2016-Jul-18 14:30N 29°34' W 090°36'0 0.0
2016-Jul-18 13:24N 29°34' W 090°36'0 0.0
2016-Jul-18 12:30N 29°34' W 090°36'0 0.0
2016-Jul-18 11:30N 29°34' W 090°36'0 0.0
2016-Jul-18 10:30N 29°34' W 090°36'0 0.0
2016-Jul-18 09:30N 29°34' W 090°36'0 0.0
2016-Jul-18 08:30N 29°34' W 090°36'0 0.0
2016-Jul-18 07:30N 29°34' W 090°36'0 0.0
2016-Jul-18 06:24N 29°34' W 090°36'0 0.0
2016-Jul-18 05:30N 29°34' W 090°36'0 0.0
2016-Jul-18 04:30N 29°34' W 090°36'0 0.0
2016-Jul-18 03:30N 29°34' W 090°36'0 0.0
2016-Jul-18 02:30N 29°34' W 090°36'0 0.0
2016-Jul-18 01:30N 29°34' W 090°36'0 0.0
2016-Jul-18 00:30N 29°34' W 090°36'0 0.0
2016-Jul-17 23:30N 29°34' W 090°36'0 0.0
2016-Jul-17 22:30N 29°34' W 090°36'0 0.0
2016-Jul-17 21:30N 29°34' W 090°36'0 0.0
2016-Jul-17 20:30N 29°34' W 090°36'0 0.0
2016-Jul-17 19:24N 29°34' W 090°36'0 0.0
2016-Jul-17 18:30N 29°34' W 090°36'0 0.0
2016-Jul-17 17:30N 29°34' W 090°36'0 0.0
2016-Jul-17 16:30N 29°34' W 090°36'0 0.0
2016-Jul-17 15:30N 29°34' W 090°36'0 0.0
2016-Jul-17 14:30N 29°34' W 090°36'0 0.0
2016-Jul-17 13:30N 29°34' W 090°36'0 0.0
2016-Jul-17 12:18N 29°34' W 090°36'0 0.0
2016-Jul-17 11:24N 29°34' W 090°36'0 0.5
2016-Jul-17 10:31N 29°35' W 090°36'4 3.7
2016-Jul-17 09:33N 29°34' W 090°32'28 5.5
2016-Jul-17 04:27N 29°47' W 090°04'5 5.4
2016-Jul-17 03:33N 29°51' W 090°01'4 3.9
2016-Jul-17 02:26N 29°55' W 089°58'0 0.3
2016-Jul-17 01:31N 29°55' W 089°58'0 0.0
2016-Jul-17 00:31N 29°55' W 089°58'0 0.0
2016-Jul-16 23:31N 29°55' W 089°58'0 0.0
2016-Jul-16 22:31N 29°55' W 089°58'0 0.0
2016-Jul-16 21:31N 29°55' W 089°58'0 0.0
2016-Jul-16 20:31N 29°55' W 089°58'0 0.0
2016-Jul-16 19:31N 29°55' W 089°58'4 4.1
2016-Jul-16 18:32N 29°58' W 090°02'1 0.6
2016-Jul-16 17:32N 29°59' W 090°01'0 0.1
2016-Jul-16 16:34N 29°59' W 090°01'2 2.2
2016-Jul-16 15:33N 29°60' W 089°59'0 0.0
2016-Jul-16 14:33N 29°60' W 089°59'0 0.0
2016-Jul-16 13:33N 29°60' W 089°59'0 0.0
2016-Jul-16 12:33N 29°60' W 089°59'0 0.0
2016-Jul-16 11:27N 29°60' W 089°59'0 0.0
2016-Jul-16 10:21N 29°60' W 089°59'0 0.1
2016-Jul-16 09:21N 29°60' W 089°59'0 0.1
2016-Jul-16 08:30N 29°60' W 089°59'0 0.0
2016-Jul-16 07:24N 29°60' W 089°59'0 0.0
2016-Jul-16 06:18N 29°60' W 089°59'0 0.0
2016-Jul-16 04:30N 29°60' W 089°59'0 0.0
2016-Jul-16 03:30N 29°60' W 089°59'0 0.0
2016-Jul-16 02:30N 29°60' W 089°59'0 0.0
2016-Jul-16 01:30N 29°60' W 089°59'0 0.0
2016-Jul-16 00:30N 29°60' W 089°59'0 0.0
2016-Jul-15 23:30N 29°60' W 089°59'0 0.0
2016-Jul-15 22:30N 29°60' W 089°59'0 0.0
2016-Jul-15 21:30N 29°60' W 089°59'0 0.0
2016-Jul-15 20:24N 29°60' W 089°59'0 0.0
2016-Jul-15 19:24N 29°60' W 089°59'0 0.0
2016-Jul-15 18:33N 29°60' W 089°59'0 0.0
2016-Jul-15 17:30N 29°60' W 089°59'0 0.0
2016-Jul-15 16:30N 29°60' W 089°59'0 0.0
2016-Jul-15 15:30N 29°60' W 089°59'0 0.0
2016-Jul-15 14:30N 29°60' W 089°59'0 0.0
2016-Jul-15 13:30N 29°60' W 089°59'5 4.1
2016-Jul-15 12:22N 30°01' W 089°54'  
Track history (hours):
 
Tides and Currents Weather Stations Pressure Air Temp Water Temp Dewpoint Dewpoint Depression Visibility Wind Speed Wind Dir Waves Ship Positions

Boo Sonier

Owner: LeBeouf Bros. Towing, LLC, Houma, LA. More information available from US FCC via Universal Licensing System and Coast Guard Vessel Documentation Center.

Last reported at 2016-Jul-23 16:28 UTC. Time now 2016-Jul-23 23:13 UTC.
Position N 30°00' W 089°56'.

Length 21 m.

Type: Tug. MMSI: 367524420.

Date/timePositionNaut miles runAvg speedWind from/ knotsBaromVisibWave heightAir tempDewpointWater temp
2016-Jul-23 16:28N 30°00' W 089°56'4 4.2
2016-Jul-23 15:29N 29°60' W 090°00'2 2.4
2016-Jul-23 14:32N 29°58' W 090°02'1 0.7
2016-Jul-23 13:33N 29°57' W 090°01'2 1.8
2016-Jul-23 12:33N 29°56' W 089°60'0 0.0
2016-Jul-23 11:31N 29°56' W 089°60'0 0.0
2016-Jul-23 10:33N 29°56' W 089°60'0 0.0
2016-Jul-23 09:30N 29°56' W 089°60'0 0.0
2016-Jul-23 08:34N 29°56' W 089°60'0 0.0
2016-Jul-23 07:34N 29°56' W 089°60'0 0.0
2016-Jul-23 06:33N 29°56' W 089°60'0 0.0
2016-Jul-23 04:34N 29°56' W 089°60'1 0.5
2016-Jul-23 03:31N 29°56' W 090°00'0 0.0
2016-Jul-23 02:31N 29°56' W 090°00'0 0.0
2016-Jul-23 01:31N 29°56' W 090°00'1 0.6
2016-Jul-23 00:31N 29°56' W 089°60'0 0.1
2016-Jul-22 23:31N 29°56' W 089°60'0 0.1
2016-Jul-22 22:31N 29°56' W 089°60'0 0.0
2016-Jul-22 21:28N 29°56' W 089°60'0 0.0
2016-Jul-22 20:31N 29°56' W 089°60'0 0.0
2016-Jul-22 19:28N 29°56' W 089°60'0 0.0
2016-Jul-22 18:28N 29°56' W 089°60'0 0.0
2016-Jul-22 17:31N 29°56' W 089°60'0 0.0
2016-Jul-22 16:31N 29°56' W 089°60'0 0.0
2016-Jul-22 15:31N 29°56' W 089°60'0 0.0
2016-Jul-22 14:31N 29°56' W 089°60'0 0.0
2016-Jul-22 13:31N 29°56' W 089°60'0 0.0
2016-Jul-22 12:31N 29°56' W 089°60'0 0.0
2016-Jul-22 11:31N 29°56' W 089°60'0 0.0
2016-Jul-22 10:31N 29°56' W 089°60'0 0.0
2016-Jul-22 09:31N 29°56' W 089°60'0 0.0
2016-Jul-22 08:31N 29°56' W 089°60'0 0.0
2016-Jul-22 07:31N 29°56' W 089°60'0 0.0
2016-Jul-22 04:31N 29°56' W 089°60'0 0.0
2016-Jul-22 03:31N 29°56' W 089°60'0 0.0
2016-Jul-22 02:31N 29°56' W 089°60'2 1.7
2016-Jul-22 01:31N 29°55' W 089°58'1 0.7
2016-Jul-22 00:31N 29°54' W 089°59'0 0.0
2016-Jul-21 23:31N 29°54' W 089°59'3 3.6
2016-Jul-21 22:33N 29°51' W 090°01'4 3.9
2016-Jul-21 21:33N 29°49' W 090°04'26 4.2
2016-Jul-21 15:19N 29°34' W 090°28'4 5.5
2016-Jul-21 14:33N 29°34' W 090°33'3 2.5
2016-Jul-21 13:33N 29°35' W 090°36'0 0.1
2016-Jul-21 12:33N 29°35' W 090°36'2 1.5
2016-Jul-21 11:33N 29°35' W 090°37'5 4.7
2016-Jul-21 10:33N 29°36' W 090°43'3 3.2
2016-Jul-21 09:31N 29°34' W 090°45'5 5.1
2016-Jul-21 08:33N 29°32' W 090°50'1 0.0
2016-Jul-20 02:33N 29°32' W 090°49'6 5.8
2016-Jul-20 01:33N 29°35' W 090°43'4 3.7
2016-Jul-20 00:33N 29°36' W 090°39'3 2.8
2016-Jul-19 23:33N 29°35' W 090°36'0 0.3
2016-Jul-19 22:31N 29°34' W 090°36'0 0.0
2016-Jul-19 21:25N 29°34' W 090°36'0 0.0
2016-Jul-19 20:31N 29°34' W 090°36'0 0.0
2016-Jul-19 19:31N 29°34' W 090°36'0 0.0
2016-Jul-19 18:31N 29°34' W 090°36'0 0.0
2016-Jul-19 17:31N 29°34' W 090°36'0 0.0
2016-Jul-19 16:31N 29°34' W 090°36'0 0.3
2016-Jul-19 15:33N 29°35' W 090°35'0 0.3
2016-Jul-19 14:28N 29°35' W 090°36'0 0.0
2016-Jul-19 13:28N 29°35' W 090°36'4 4.0
2016-Jul-19 12:33N 29°36' W 090°40'2 1.9
2016-Jul-19 11:31N 29°37' W 090°42'0 0.0
2016-Jul-19 10:31N 29°37' W 090°42'0 0.0
2016-Jul-19 09:31N 29°37' W 090°42'0 0.0
2016-Jul-19 08:31N 29°37' W 090°42'0 0.0
2016-Jul-19 07:31N 29°37' W 090°42'0 0.0
2016-Jul-19 04:31N 29°37' W 090°42'0 0.0
2016-Jul-19 03:31N 29°37' W 090°42'0 0.0
2016-Jul-19 02:31N 29°37' W 090°42'0 0.0
2016-Jul-19 01:31N 29°37' W 090°42'0 0.0
2016-Jul-19 00:31N 29°37' W 090°42'1 1.3
2016-Jul-18 23:33N 29°36' W 090°40'5 4.7
2016-Jul-18 22:33N 29°35' W 090°35'0 0.3
2016-Jul-18 21:12N 29°34' W 090°36'0 0.0
2016-Jul-18 20:24N 29°34' W 090°36'0 0.0
2016-Jul-18 19:30N 29°34' W 090°36'0 0.0
2016-Jul-18 18:30N 29°34' W 090°36'0 0.0
2016-Jul-18 17:30N 29°34' W 090°36'0 0.0
2016-Jul-18 16:30N 29°34' W 090°36'0 0.0
2016-Jul-18 15:30N 29°34' W 090°36'0 0.0
2016-Jul-18 14:30N 29°34' W 090°36'0 0.0
2016-Jul-18 13:24N 29°34' W 090°36'0 0.0
2016-Jul-18 12:30N 29°34' W 090°36'0 0.0
2016-Jul-18 11:30N 29°34' W 090°36'0 0.0
2016-Jul-18 10:30N 29°34' W 090°36'0 0.0
2016-Jul-18 09:30N 29°34' W 090°36'0 0.0
2016-Jul-18 08:30N 29°34' W 090°36'0 0.0
2016-Jul-18 07:30N 29°34' W 090°36'0 0.0
2016-Jul-18 06:24N 29°34' W 090°36'0 0.0
2016-Jul-18 05:30N 29°34' W 090°36'0 0.0
2016-Jul-18 04:30N 29°34' W 090°36'0 0.0
2016-Jul-18 03:30N 29°34' W 090°36'0 0.0
2016-Jul-18 02:30N 29°34' W 090°36'0 0.0
2016-Jul-18 01:30N 29°34' W 090°36'0 0.0
2016-Jul-18 00:30N 29°34' W 090°36'0 0.0
2016-Jul-17 23:30N 29°34' W 090°36'0 0.0
2016-Jul-17 22:30N 29°34' W 090°36'0 0.0
2016-Jul-17 21:30N 29°34' W 090°36'0 0.0
2016-Jul-17 20:30N 29°34' W 090°36'0 0.0
2016-Jul-17 19:24N 29°34' W 090°36'0 0.0
2016-Jul-17 18:30N 29°34' W 090°36'0 0.0
2016-Jul-17 17:30N 29°34' W 090°36'0 0.0
2016-Jul-17 16:30N 29°34' W 090°36'0 0.0
2016-Jul-17 15:30N 29°34' W 090°36'0 0.0
2016-Jul-17 14:30N 29°34' W 090°36'0 0.0
2016-Jul-17 13:30N 29°34' W 090°36'0 0.0
2016-Jul-17 12:18N 29°34' W 090°36'0 0.0
2016-Jul-17 11:24N 29°34' W 090°36'0 0.5
2016-Jul-17 10:31N 29°35' W 090°36'4 3.7
2016-Jul-17 09:33N 29°34' W 090°32'28 5.5
2016-Jul-17 04:27N 29°47' W 090°04'5 5.4
2016-Jul-17 03:33N 29°51' W 090°01'4 3.9
2016-Jul-17 02:26N 29°55' W 089°58'0 0.3
2016-Jul-17 01:31N 29°55' W 089°58'0 0.0
2016-Jul-17 00:31N 29°55' W 089°58'0 0.0
2016-Jul-16 23:31N 29°55' W 089°58'0 0.0
2016-Jul-16 22:31N 29°55' W 089°58'0 0.0
2016-Jul-16 21:31N 29°55' W 089°58'0 0.0
2016-Jul-16 20:31N 29°55' W 089°58'0 0.0
2016-Jul-16 19:31N 29°55' W 089°58'4 4.1
2016-Jul-16 18:32N 29°58' W 090°02'1 0.6
2016-Jul-16 17:32N 29°59' W 090°01'0 0.1
2016-Jul-16 16:34N 29°59' W 090°01'2 2.2
2016-Jul-16 15:33N 29°60' W 089°59'0 0.0
2016-Jul-16 14:33N 29°60' W 089°59'0 0.0
2016-Jul-16 13:33N 29°60' W 089°59'0 0.0
2016-Jul-16 12:33N 29°60' W 089°59'0 0.0
2016-Jul-16 11:27N 29°60' W 089°59'0 0.0
2016-Jul-16 10:21N 29°60' W 089°59'0 0.1
2016-Jul-16 09:21N 29°60' W 089°59'0 0.1
2016-Jul-16 08:30N 29°60' W 089°59'0 0.0
2016-Jul-16 07:24N 29°60' W 089°59'0 0.0
2016-Jul-16 06:18N 29°60' W 089°59'0 0.0
2016-Jul-16 04:30N 29°60' W 089°59'0 0.0
2016-Jul-16 03:30N 29°60' W 089°59'0 0.0
2016-Jul-16 02:30N 29°60' W 089°59'0 0.0
2016-Jul-16 01:30N 29°60' W 089°59'0 0.0
2016-Jul-16 00:30N 29°60' W 089°59'0 0.0
2016-Jul-15 23:30N 29°60' W 089°59'0 0.0
2016-Jul-15 22:30N 29°60' W 089°59'0 0.0
2016-Jul-15 21:30N 29°60' W 089°59'0 0.0
2016-Jul-15 20:24N 29°60' W 089°59'0 0.0
2016-Jul-15 19:24N 29°60' W 089°59'0 0.0
2016-Jul-15 18:33N 29°60' W 089°59'0 0.0
2016-Jul-15 17:30N 29°60' W 089°59'0 0.0
2016-Jul-15 16:30N 29°60' W 089°59'0 0.0
2016-Jul-15 15:30N 29°60' W 089°59'0 0.0
2016-Jul-15 14:30N 29°60' W 089°59'0 0.0
2016-Jul-15 13:30N 29°60' W 089°59'5 4.1
2016-Jul-15 12:22N 30°01' W 089°54'  

Dump ship's entire track history